Time;durP1;ratioP1;P1;durP2;ratioP2;P2;SDS_P1;SDS_P2;PMS_P1;PMS_P2;Temp;Humidity;BMP_temperature;BMP_pressure;BME280_temperature;BME280_humidity;BME280_pressure;Samples;Min_cycle;Max_cycle;Signal;HPM_P1;HPM_P2
2022/06/16 00:00:55;;;;;;;3.33;1.85;;;25.40;49.00;;;;;;4881848;29;20036;-45
2022/06/16 00:03:21;;;;;;;2.88;1.90;;;25.40;49.00;;;;;;4881568;29;20033;-45
2022/06/16 00:05:48;;;;;;;3.40;1.90;;;25.40;48.90;;;;;;4880813;29;20033;-44
2022/06/16 00:08:16;;;;;;;4.72;2.17;;;25.40;48.90;;;;;;4879707;29;20029;-45
2022/06/16 00:13:36;;;;;;;3.30;2.00;;;25.40;48.90;;;;;;4880704;29;20493;-45
2022/06/16 00:16:02;;;;;;;3.22;1.92;;;25.40;48.90;;;;;;4881291;29;20498;-45
2022/06/16 00:18:28;;;;;;;4.68;2.28;;;25.40;48.90;;;;;;4880915;29;20687;-45
2022/06/16 00:20:54;;;;;;;3.78;1.83;;;25.40;48.90;;;;;;4881103;29;20036;-45
2022/06/16 00:23:20;;;;;;;3.45;2.08;;;25.40;48.90;;;;;;4880928;29;20036;-45
2022/06/16 00:25:46;;;;;;;3.90;2.10;;;25.40;48.90;;;;;;4881448;29;20103;-46
2022/06/16 00:28:12;;;;;;;3.42;1.98;;;25.40;49.00;;;;;;4882632;29;20117;-46
2022/06/16 00:30:38;;;;;;;3.60;2.10;;;25.40;48.90;;;;;;4882442;29;20037;-45
2022/06/16 00:33:04;;;;;;;3.90;2.08;;;25.40;48.90;;;;;;4864924;29;20033;-46
2022/06/16 00:35:30;;;;;;;4.22;2.45;;;25.40;48.90;;;;;;4881008;29;20025;-45
2022/06/16 00:37:56;;;;;;;3.97;2.17;;;25.40;48.90;;;;;;4880953;29;20040;-46
2022/06/16 00:40:22;;;;;;;3.25;2.17;;;25.40;49.00;;;;;;4881052;29;20033;-45
2022/06/16 00:42:48;;;;;;;3.35;1.90;;;25.30;49.00;;;;;;4880880;29;20028;-45
2022/06/16 00:45:42;;;;;;;3.35;1.90;;;25.30;49.00;;;;;;4881660;29;20081;-45
2022/06/16 00:48:10;;;;;;;3.53;2.10;;;25.30;48.90;;;;;;4880703;29;20104;-45
2022/06/16 00:50:37;;;;;;;3.08;1.92;;;25.30;48.90;;;;;;4880565;29;20112;-46
2022/06/16 00:53:02;;;;;;;3.13;2.05;;;25.40;48.90;;;;;;4880923;29;20060;-45
2022/06/16 00:55:28;;;;;;;2.83;1.70;;;25.30;48.80;;;;;;4880612;29;20057;-46
2022/06/16 00:57:55;;;;;;;3.13;1.70;;;25.30;48.90;;;;;;4881823;29;20033;-46
2022/06/16 01:02:54;;;;;;;2.72;1.75;;;25.30;48.80;;;;;;4879927;29;20084;-46
2022/06/16 01:05:20;;;;;;;3.10;1.85;;;25.30;48.90;;;;;;4879827;29;20037;-44
2022/06/16 01:07:48;;;;;;;3.42;1.83;;;25.30;48.80;;;;;;4880427;29;20025;-45
2022/06/16 01:10:17;;;;;;;3.33;1.88;;;25.30;49.50;;;;;;4880272;29;20043;-45
2022/06/16 01:16:02;;;;;;;3.22;1.92;;;25.30;48.90;;;;;;4881525;29;20059;-46
2022/06/16 01:18:53;;;;;;;3.20;2.20;;;25.30;48.90;;;;;;4866722;29;20076;-46
2022/06/16 01:22:07;;;;;;;3.83;1.85;;;25.30;48.90;;;;;;4879576;29;20074;-45
2022/06/16 01:24:42;;;;;;;3.85;2.10;;;25.30;48.80;;;;;;4872376;29;20079;-46
2022/06/16 01:27:25;;;;;;;3.20;1.83;;;25.30;48.90;;;;;;4880167;29;20025;-46
2022/06/16 01:30:14;;;;;;;3.03;1.92;;;25.30;48.90;;;;;;4878836;29;20544;-43
2022/06/16 01:32:52;;;;;;;3.25;1.90;;;25.30;48.90;;;;;;4880580;29;20035;-46
2022/06/16 01:35:26;;;;;;;3.15;1.90;;;25.30;49.60;;;;;;4877554;29;20048;-46
2022/06/16 01:38:13;;;;;;;4.07;2.00;;;25.30;49.60;;;;;;4879839;29;20017;-44
2022/06/16 01:40:51;;;;;;;2.88;1.67;;;25.30;48.90;;;;;;4880070;29;20033;-44
2022/06/16 01:43:35;;;;;;;3.47;2.05;;;25.30;48.80;;;;;;4878200;29;20084;-45
2022/06/16 01:46:11;;;;;;;3.13;2.10;;;25.30;48.80;;;;;;4880523;29;20048;-45
2022/06/16 01:48:37;;;;;;;3.10;1.65;;;25.30;48.80;;;;;;4879688;29;20651;-46
2022/06/16 01:51:22;;;;;;;3.15;1.63;;;25.30;48.70;;;;;;4879518;29;20037;-45
2022/06/16 01:54:23;;;;;;;2.70;1.67;;;25.30;48.70;;;;;;4879643;29;20056;-46
2022/06/16 01:56:58;;;;;;;3.10;1.80;;;25.30;48.70;;;;;;4874102;29;20052;-44
2022/06/16 01:59:29;;;;;;;3.20;1.90;;;25.30;48.80;;;;;;4880058;29;20125;-46
2022/06/16 02:02:02;;;;;;;3.22;1.92;;;25.30;48.70;;;;;;4880548;29;20031;-45
2022/06/16 02:05:00;;;;;;;3.03;1.90;;;25.30;48.80;;;;;;4894253;29;20029;-44
2022/06/16 02:07:39;;;;;;;2.90;1.67;;;25.30;48.70;;;;;;4878931;29;20053;-44
2022/06/16 02:10:11;;;;;;;2.83;1.52;;;25.30;48.80;;;;;;4880099;29;20100;-47
2022/06/16 02:12:58;;;;;;;3.15;1.98;;;25.30;48.80;;;;;;4879547;29;20032;-45
2022/06/16 02:15:38;;;;;;;3.60;1.98;;;25.30;48.70;;;;;;4880364;29;20033;-45
2022/06/16 02:18:08;;;;;;;3.25;1.85;;;25.30;48.80;;;;;;4877759;29;20063;-45
2022/06/16 02:20:58;;;;;;;2.95;1.85;;;25.30;48.80;;;;;;4879097;29;20115;-47
2022/06/16 02:23:24;;;;;;;2.55;1.50;;;25.30;48.70;;;;;;4878348;29;20033;-45
2022/06/16 02:25:55;;;;;;;2.83;1.80;;;25.30;48.70;;;;;;4878975;29;20481;-46
2022/06/16 02:28:22;;;;;;;3.35;1.85;;;25.30;48.80;;;;;;4879578;29;20121;-44
2022/06/16 02:31:12;;;;;;;3.15;1.90;;;25.30;48.70;;;;;;4880738;29;20111;-44
2022/06/16 02:34:03;;;;;;;3.35;2.00;;;25.30;48.70;;;;;;4877877;29;20097;-46
2022/06/16 02:36:57;;;;;;;3.45;1.70;;;25.20;48.70;;;;;;4878310;29;20032;-46
2022/06/16 02:39:29;;;;;;;3.22;1.95;;;25.30;48.70;;;;;;4857526;29;20052;-44
2022/06/16 02:42:21;;;;;;;3.00;1.90;;;25.30;48.60;;;;;;4877542;29;20117;-46
2022/06/16 02:45:00;;;;;;;3.40;2.10;;;25.30;48.70;;;;;;4888581;29;20124;-43
2022/06/16 02:47:48;;;;;;;3.47;2.03;;;25.20;48.70;;;;;;4877374;29;20211;-44
2022/06/16 02:50:23;;;;;;;2.88;1.88;;;25.20;48.70;;;;;;4877570;29;20033;-44
2022/06/16 02:53:11;;;;;;;4.38;2.10;;;25.20;48.70;;;;;;4877105;29;20038;-43
2022/06/16 02:55:43;;;;;;;3.10;1.77;;;25.20;48.70;;;;;;4878658;29;20569;-46
2022/06/16 02:58:13;;;;;;;3.25;1.88;;;25.20;48.70;;;;;;4879031;29;20045;-45
2022/06/16 03:00:50;;;;;;;3.38;1.92;;;25.20;48.70;;;;;;4879431;29;20029;-45
2022/06/16 03:03:28;;;;;;;3.83;1.85;;;25.20;48.70;;;;;;4879491;29;20064;-45
2022/06/16 03:05:55;;;;;;;3.55;1.92;;;25.20;48.70;;;;;;4878491;29;20272;-44
2022/06/16 03:08:22;;;;;;;3.05;1.80;;;25.20;48.70;;;;;;4878793;29;20051;-44
2022/06/16 03:10:51;;;;;;;2.80;1.90;;;25.20;48.70;;;;;;4878952;29;20624;-44
2022/06/16 03:13:22;;;;;;;2.80;1.90;;;25.20;48.60;;;;;;4877603;29;20055;-45
2022/06/16 03:15:49;;;;;;;3.65;2.20;;;25.20;48.60;;;;;;4880481;29;20743;-45
2022/06/16 03:18:15;;;;;;;3.20;2.00;;;25.20;48.60;;;;;;4893860;29;20397;-43
2022/06/16 03:20:41;;;;;;;2.92;1.90;;;25.20;48.50;;;;;;4878233;29;20065;-45
2022/06/16 03:23:07;;;;;;;3.60;1.80;;;25.20;48.50;;;;;;4878146;29;20545;-46
2022/06/16 03:25:34;;;;;;;3.03;1.70;;;25.20;48.50;;;;;;4878536;29;20032;-45
2022/06/16 03:28:00;;;;;;;2.80;1.83;;;25.20;48.60;;;;;;4879485;29;20032;-43
2022/06/16 03:30:25;;;;;;;3.08;1.80;;;25.20;48.50;;;;;;4879149;29;20032;-43
2022/06/16 03:32:51;;;;;;;3.55;1.77;;;25.20;48.50;;;;;;4879239;29;20032;-45
2022/06/16 03:35:17;;;;;;;3.63;2.10;;;25.20;48.50;;;;;;4877010;29;20028;-44
2022/06/16 03:37:42;;;;;;;3.28;1.88;;;25.20;48.50;;;;;;4878385;29;20627;-45
2022/06/16 03:40:11;;;;;;;2.92;1.88;;;25.20;48.50;;;;;;4878568;29;20032;-44
2022/06/16 03:42:37;;;;;;;3.05;1.63;;;25.20;48.50;;;;;;4878461;29;20032;-44
2022/06/16 03:45:04;;;;;;;3.22;1.83;;;25.20;48.50;;;;;;4878427;29;20025;-46
2022/06/16 03:47:29;;;;;;;2.53;1.63;;;25.20;48.50;;;;;;4877830;29;20104;-46
2022/06/16 03:49:55;;;;;;;2.78;1.50;;;25.20;48.50;;;;;;4878772;29;20660;-44
2022/06/16 03:52:21;;;;;;;2.60;1.55;;;25.20;48.50;;;;;;4878041;29;20037;-43
2022/06/16 03:54:47;;;;;;;2.90;1.80;;;25.20;48.50;;;;;;4880864;29;20036;-44
2022/06/16 03:57:13;;;;;;;2.80;1.65;;;25.20;48.50;;;;;;4879996;29;20401;-44
2022/06/16 03:59:38;;;;;;;3.25;2.08;;;25.20;48.50;;;;;;4882465;29;20402;-44
2022/06/16 04:02:04;;;;;;;3.65;2.20;;;25.20;48.50;;;;;;4882930;29;20041;-44
2022/06/16 04:04:30;;;;;;;2.85;1.52;;;25.20;48.50;;;;;;4884182;29;20033;-44
2022/06/16 04:06:56;;;;;;;2.97;1.83;;;25.20;48.50;;;;;;4881227;29;20397;-45
2022/06/16 04:09:21;;;;;;;2.95;1.75;;;25.20;48.50;;;;;;4881172;29;20041;-44
2022/06/16 04:11:47;;;;;;;2.95;1.90;;;25.20;48.50;;;;;;4881322;29;20033;-45
2022/06/16 04:14:14;;;;;;;2.58;1.65;;;25.20;48.50;;;;;;4880640;29;20187;-47
2022/06/16 04:16:46;;;;;;;3.15;1.77;;;25.20;48.40;;;;;;4882294;29;20650;-44
2022/06/16 04:19:15;;;;;;;3.07;1.60;;;25.20;48.40;;;;;;4881809;29;20040;-44
2022/06/16 04:21:42;;;;;;;2.95;1.80;;;25.20;48.40;;;;;;4882947;29;20385;-44
2022/06/16 04:24:09;;;;;;;3.25;2.10;;;25.20;48.50;;;;;;4880875;29;20025;-43
2022/06/16 04:26:38;;;;;;;4.93;2.45;;;25.20;48.50;;;;;;4881259;29;20100;-44
2022/06/16 04:29:05;;;;;;;2.58;1.50;;;25.20;48.50;;;;;;4880638;29;20741;-43
2022/06/16 04:31:31;;;;;;;3.80;2.00;;;25.20;48.50;;;;;;4882147;29;20035;-44
2022/06/16 04:33:58;;;;;;;3.58;1.90;;;25.20;48.50;;;;;;4881364;29;20251;-43
2022/06/16 04:36:24;;;;;;;3.30;2.10;;;25.20;48.50;;;;;;4880593;29;20029;-44
2022/06/16 04:38:50;;;;;;;3.75;2.22;;;25.20;48.50;;;;;;4880979;29;20027;-45
2022/06/16 04:41:16;;;;;;;3.20;1.60;;;25.10;48.50;;;;;;4880467;29;20025;-42
2022/06/16 04:43:42;;;;;;;3.30;1.75;;;25.10;48.50;;;;;;4880427;29;20623;-45
2022/06/16 04:46:08;;;;;;;3.40;2.00;;;25.20;48.50;;;;;;4880131;29;20044;-44
2022/06/16 04:48:36;;;;;;;3.15;2.03;;;25.20;48.50;;;;;;4880678;29;20496;-45
2022/06/16 04:51:03;;;;;;;3.42;1.80;;;25.20;48.50;;;;;;4881213;29;20061;-45
2022/06/16 04:53:31;;;;;;;3.20;1.85;;;25.20;48.60;;;;;;4880578;29;20025;-43
2022/06/16 04:55:59;;;;;;;3.00;1.80;;;25.20;48.60;;;;;;4880462;29;20039;-45
2022/06/16 04:58:26;;;;;;;3.40;2.00;;;25.20;48.50;;;;;;4880776;29;20037;-44
2022/06/16 05:00:53;;;;;;;3.10;1.92;;;25.20;48.50;;;;;;4880401;29;20044;-44
2022/06/16 05:03:21;;;;;;;5.25;2.42;;;25.20;48.60;;;;;;4880071;29;20037;-45
2022/06/16 05:05:49;;;;;;;3.30;1.98;;;25.20;48.60;;;;;;4879097;29;20028;-45
2022/06/16 05:08:16;;;;;;;3.28;1.88;;;25.20;48.60;;;;;;4880156;29;20494;-43
2022/06/16 05:10:44;;;;;;;2.95;1.70;;;25.20;48.70;;;;;;4879737;29;20032;-45
2022/06/16 05:13:10;;;;;;;3.40;2.20;;;25.20;48.70;;;;;;4879708;29;20509;-45
2022/06/16 05:15:36;;;;;;;3.13;2.08;;;25.20;48.70;;;;;;4880805;29;20040;-45
2022/06/16 05:18:03;;;;;;;3.33;1.90;;;25.20;48.80;;;;;;4879123;29;20029;-43
2022/06/16 05:20:28;;;;;;;4.30;2.25;;;25.20;48.90;;;;;;4879003;29;20064;-45
2022/06/16 05:22:54;;;;;;;3.30;2.30;;;25.20;49.60;;;;;;4878032;29;20138;-45
2022/06/16 05:25:20;;;;;;;3.10;2.20;;;25.20;49.00;;;;;;4879935;29;20032;-44
2022/06/16 05:27:46;;;;;;;3.30;2.00;;;25.20;49.00;;;;;;4881730;29;20051;-44
2022/06/16 05:30:12;;;;;;;3.53;2.40;;;25.20;49.10;;;;;;4878918;29;20036;-45
2022/06/16 05:32:38;;;;;;;3.97;2.30;;;25.20;49.20;;;;;;4878390;29;20060;-44
2022/06/16 05:35:04;;;;;;;6.95;2.67;;;25.20;49.20;;;;;;4878703;29;20079;-43
2022/06/16 05:37:31;;;;;;;4.10;2.83;;;25.20;50.00;;;;;;4879453;29;20482;-46
2022/06/16 05:39:57;;;;;;;3.97;2.50;;;25.20;50.20;;;;;;4879403;29;20032;-46
2022/06/16 05:42:22;;;;;;;5.30;2.60;;;25.20;50.10;;;;;;4878542;29;20032;-45
2022/06/16 05:44:48;;;;;;;3.78;2.28;;;25.20;50.30;;;;;;4879113;29;20712;-45
2022/06/16 05:47:14;;;;;;;5.38;3.53;;;25.30;49.70;;;;;;4880285;29;20036;-45
2022/06/16 05:49:42;;;;;;;3.20;1.95;;;25.30;49.50;;;;;;4879437;29;20493;-44
2022/06/16 05:52:13;;;;;;;6.07;2.65;;;25.30;49.90;;;;;;4878968;29;20161;-44
2022/06/16 05:54:40;;;;;;;4.77;2.80;;;25.30;50.50;;;;;;4878807;29;20033;-44
2022/06/16 05:57:08;;;;;;;4.97;2.78;;;25.30;50.50;;;;;;4878234;29;20032;-45
2022/06/16 05:59:35;;;;;;;4.43;2.85;;;25.30;50.30;;;;;;4879793;29;20033;-43
2022/06/16 06:02:01;;;;;;;4.55;2.78;;;25.30;50.40;;;;;;4878554;29;20040;-46
2022/06/16 06:04:27;;;;;;;5.03;2.80;;;25.30;50.20;;;;;;4878586;29;20021;-45
2022/06/16 06:06:53;;;;;;;3.90;2.70;;;25.30;50.20;;;;;;4878269;29;20044;-44
2022/06/16 06:17:38;;;;;;;4.72;2.60;;;25.30;50.10;;;;;;4879390;29;20029;-44
2022/06/16 06:20:04;;;;;;;4.30;2.83;;;25.30;50.10;;;;;;4878231;29;20033;-44
2022/06/16 06:22:30;;;;;;;3.97;2.60;;;25.30;50.10;;;;;;4878280;29;20031;-44
2022/06/16 06:24:58;;;;;;;3.75;2.65;;;25.30;50.10;;;;;;4877696;29;20064;-44
2022/06/16 06:27:40;;;;;;;4.50;2.50;;;25.30;50.10;;;;;;4878304;29;20028;-45
2022/06/16 06:30:11;;;;;;;4.95;2.92;;;25.30;50.20;;;;;;4874147;29;20920;-46
2022/06/16 06:32:37;;;;;;;4.10;3.08;;;25.30;50.90;;;;;;4877890;29;20095;-45
2022/06/16 06:35:03;;;;;;;4.75;3.03;;;25.30;51.00;;;;;;4878074;29;20045;-45
2022/06/16 06:37:29;;;;;;;4.07;2.88;;;25.30;51.30;;;;;;4877019;29;20032;-44
2022/06/16 06:39:55;;;;;;;5.03;2.92;;;25.30;51.20;;;;;;4877123;29;20029;-45
2022/06/16 06:42:22;;;;;;;4.80;3.40;;;25.30;51.50;;;;;;4877898;29;20037;-44
2022/06/16 06:44:48;;;;;;;6.38;2.55;;;25.30;51.40;;;;;;4877274;29;20025;-46
2022/06/16 06:47:21;;;;;;;4.57;3.20;;;25.30;51.60;;;;;;4881136;29;20032;-44
2022/06/16 06:49:47;;;;;;;4.68;2.60;;;25.30;51.40;;;;;;4878413;29;20025;-45
2022/06/16 06:52:14;;;;;;;4.43;3.05;;;25.30;51.00;;;;;;4876952;29;20032;-44
2022/06/16 06:54:39;;;;;;;3.83;2.78;;;25.40;51.20;;;;;;4878850;29;20718;-45
2022/06/16 06:57:06;;;;;;;4.32;2.72;;;25.40;51.00;;;;;;4878406;29;20021;-45
2022/06/16 06:59:31;;;;;;;4.53;2.78;;;25.40;51.00;;;;;;4878319;29;20661;-45
2022/06/16 07:01:57;;;;;;;4.60;3.17;;;25.40;50.90;;;;;;4879590;29;20128;-44
2022/06/16 07:04:23;;;;;;;4.32;2.83;;;25.40;51.10;;;;;;4878561;29;20032;-43
2022/06/16 07:06:49;;;;;;;5.80;3.08;;;25.40;51.00;;;;;;4878335;29;20073;-44
2022/06/16 07:09:17;;;;;;;3.80;2.85;;;25.40;51.00;;;;;;4879064;29;20041;-43
2022/06/16 07:11:44;;;;;;;4.68;3.08;;;25.40;50.90;;;;;;4878827;29;20033;-45
2022/06/16 07:14:09;;;;;;;3.78;2.70;;;25.40;51.10;;;;;;4878067;29;20024;-44
2022/06/16 07:16:36;;;;;;;4.30;2.95;;;25.40;50.90;;;;;;4878880;29;20029;-44
2022/06/16 07:19:02;;;;;;;5.63;2.92;;;25.40;50.60;;;;;;4876896;29;20040;-44
2022/06/16 07:21:28;;;;;;;5.43;2.90;;;25.40;50.50;;;;;;4877470;29;20037;-44
2022/06/16 07:23:54;;;;;;;4.28;2.72;;;25.40;50.40;;;;;;4878442;29;20037;-44
2022/06/16 07:26:20;;;;;;;4.50;2.95;;;25.40;50.90;;;;;;4877680;29;20029;-43
2022/06/16 07:28:48;;;;;;;3.90;2.85;;;25.50;50.20;;;;;;4878962;29;20025;-44
2022/06/16 07:31:14;;;;;;;5.35;3.17;;;25.40;50.20;;;;;;4882812;29;20039;-43
2022/06/16 07:33:40;;;;;;;3.42;2.42;;;25.40;50.20;;;;;;4880881;29;20064;-44
2022/06/16 07:36:08;;;;;;;3.47;2.28;;;25.40;50.20;;;;;;4879899;29;20533;-44
2022/06/16 07:38:34;;;;;;;5.75;2.40;;;25.50;50.10;;;;;;4881370;29;20024;-45
2022/06/16 07:43:44;;;;;;;3.55;2.55;;;25.40;50.10;;;;;;4882186;29;20052;-45
2022/06/16 07:46:10;;;;;;;5.05;3.72;;;25.50;50.60;;;;;;4881257;29;20439;-45
2022/06/16 07:48:36;;;;;;;5.05;3.17;;;25.40;50.80;;;;;;4882171;29;20028;-44
2022/06/16 07:51:02;;;;;;;5.05;3.22;;;25.50;50.70;;;;;;4881506;29;20132;-45
2022/06/16 07:53:28;;;;;;;4.93;2.30;;;25.40;50.80;;;;;;4881032;29;20738;-45
2022/06/16 07:55:54;;;;;;;4.20;2.88;;;25.40;50.70;;;;;;4881192;29;20040;-46
2022/06/16 07:58:19;;;;;;;4.65;3.17;;;25.40;51.10;;;;;;4882753;29;20063;-45
2022/06/16 08:00:45;;;;;;;4.47;3.05;;;25.50;51.10;;;;;;4882619;29;21361;-46
2022/06/16 08:03:11;;;;;;;5.22;2.70;;;25.50;51.20;;;;;;4881267;29;20028;-45
2022/06/16 08:05:36;;;;;;;4.70;2.72;;;25.50;51.10;;;;;;4881035;29;20032;-45
2022/06/16 08:08:02;;;;;;;4.10;2.78;;;25.40;50.80;;;;;;4879977;29;20461;-44
2022/06/16 08:10:34;;;;;;;4.15;2.95;;;25.50;50.60;;;;;;4880381;29;20025;-44
2022/06/16 08:13:00;;;;;;;3.95;2.80;;;25.50;50.50;;;;;;4879825;29;20100;-44
2022/06/16 08:15:27;;;;;;;3.80;2.75;;;25.50;50.40;;;;;;4878807;29;20488;-43
2022/06/16 08:17:55;;;;;;;4.50;2.47;;;25.50;50.40;;;;;;4881796;29;20024;-45
2022/06/16 08:20:21;;;;;;;3.70;2.50;;;25.50;50.50;;;;;;4895197;29;20040;-45
2022/06/16 08:22:47;;;;;;;6.25;3.13;;;25.50;50.50;;;;;;4882244;29;20041;-44
2022/06/16 08:25:15;;;;;;;4.63;3.30;;;25.50;51.20;;;;;;4880662;29;20100;-46
2022/06/16 08:27:44;;;;;;;5.53;4.38;;;25.40;51.10;;;;;;4879216;29;20033;-44
2022/06/16 08:30:14;;;;;;;5.90;3.67;;;25.50;51.30;;;;;;4881562;29;20092;-43
2022/06/16 08:32:40;;;;;;;5.00;3.72;;;25.40;51.00;;;;;;4881597;29;20148;-45
2022/06/16 08:35:06;;;;;;;4.75;3.22;;;25.40;51.10;;;;;;4879888;29;20033;-44
2022/06/16 08:37:32;;;;;;;5.38;3.42;;;25.40;51.00;;;;;;4879219;29;20021;-44
2022/06/16 08:39:58;;;;;;;4.72;3.45;;;25.40;51.40;;;;;;4878802;29;20044;-42
2022/06/16 08:42:24;;;;;;;4.90;3.58;;;25.50;51.40;;;;;;4880351;29;20033;-44
2022/06/16 08:45:31;;;;;;;6.07;3.67;;;25.40;51.50;;;;;;4880242;29;20150;-48
2022/06/16 08:48:29;;;;;;;4.75;3.58;;;25.50;51.60;;;;;;4880113;29;20036;-46
2022/06/16 08:51:21;;;;;;;4.43;3.47;;;25.50;51.80;;;;;;4879203;29;20150;-42
2022/06/16 08:53:52;;;;;;;4.82;3.80;;;25.40;51.90;;;;;;4876282;29;20040;-45
2022/06/16 08:56:18;;;;;;;4.72;3.10;;;25.50;52.10;;;;;;4880696;29;20770;-44
2022/06/16 08:59:00;;;;;;;7.25;3.42;;;25.40;51.50;;;;;;4881792;29;20044;-43
2022/06/16 09:01:41;;;;;;;4.70;3.47;;;25.50;51.70;;;;;;4879748;29;20064;-44
2022/06/16 09:04:19;;;;;;;4.05;2.90;;;25.40;51.10;;;;;;4879263;29;20060;-44
2022/06/16 09:06:47;;;;;;;4.55;3.60;;;25.40;51.00;;;;;;4879158;29;20688;-43
2022/06/16 09:12:22;;;;;;;4.95;3.63;;;25.40;51.90;;;;;;4877746;29;20036;-43
2022/06/16 09:15:32;;;;;;;4.83;3.20;;;25.40;52.40;;;;;;4878555;29;20032;-44
2022/06/16 09:18:33;;;;;;;4.85;3.60;;;25.40;52.00;;;;;;4831478;29;20778;-45
2022/06/16 09:21:07;;;;;;;5.30;3.33;;;25.40;51.90;;;;;;4830244;29;20070;-44
2022/06/16 09:23:45;;;;;;;7.72;3.70;;;25.40;52.50;;;;;;4866655;29;20679;-44
2022/06/16 09:26:32;;;;;;;4.00;3.00;;;25.40;51.90;;;;;;4882157;29;20060;-45
2022/06/16 09:29:18;;;;;;;5.13;3.33;;;25.40;51.70;;;;;;4881488;29;20100;-44
2022/06/16 09:32:05;;;;;;;4.63;3.13;;;25.40;51.90;;;;;;4879817;29;20918;-45
2022/06/16 09:34:38;;;;;;;4.38;3.22;;;25.40;52.20;;;;;;4880979;29;20025;-44
2022/06/16 09:37:12;;;;;;;4.32;3.08;;;25.40;51.80;;;;;;4879173;29;20100;-45
2022/06/16 09:39:47;;;;;;;4.93;3.13;;;25.40;52.10;;;;;;4879379;29;20544;-45
2022/06/16 09:42:35;;;;;;;5.88;3.60;;;25.40;52.50;;;;;;4878574;29;20287;-43
2022/06/16 09:45:17;;;;;;;6.53;3.95;;;25.40;53.10;;;;;;4879645;29;20056;-44
2022/06/16 09:47:50;;;;;;;6.20;3.70;;;25.40;53.00;;;;;;4880517;29;20120;-43
2022/06/16 09:50:31;;;;;;;4.57;3.42;;;25.40;52.90;;;;;;4879797;29;20039;-44
2022/06/16 09:53:14;;;;;;;4.88;3.20;;;25.50;53.30;;;;;;4877401;29;20076;-44
2022/06/16 09:56:06;;;;;;;4.88;3.05;;;25.40;52.30;;;;;;4878101;29;20441;-45
2022/06/16 09:58:50;;;;;;;5.68;3.15;;;25.40;52.10;;;;;;4877581;29;20040;-45
2022/06/16 10:01:21;;;;;;;5.57;3.75;;;25.40;51.80;;;;;;4879509;29;20127;-43
2022/06/16 10:03:52;;;;;;;9.05;4.40;;;25.40;53.40;;;;;;4877979;29;20056;-44
2022/06/16 10:06:44;;;;;;;5.33;3.60;;;25.50;52.80;;;;;;4878710;29;20382;-44
2022/06/16 10:09:22;;;;;;;7.57;4.25;;;25.40;52.90;;;;;;4878874;29;20479;-43
2022/06/16 10:12:12;;;;;;;6.63;4.30;;;25.50;52.80;;;;;;4879143;29;20024;-44
2022/06/16 10:15:04;;;;;;;6.07;4.18;;;25.50;52.90;;;;;;4877520;29;20021;-43
2022/06/16 10:17:33;;;;;;;5.35;3.65;;;25.50;52.40;;;;;;4880096;29;20092;-46
2022/06/16 10:19:59;;;;;;;5.07;3.72;;;25.50;52.70;;;;;;4878055;29;20036;-47
2022/06/16 10:22:27;;;;;;;6.10;4.00;;;25.50;53.00;;;;;;4887234;29;20502;-47
2022/06/16 10:25:28;;;;;;;6.45;4.00;;;25.50;52.60;;;;;;4879010;29;20024;-43
2022/06/16 10:28:28;;;;;;;5.88;3.90;;;25.50;52.10;;;;;;4876341;29;20070;-44
2022/06/16 10:30:55;;;;;;;5.20;3.88;;;25.50;52.00;;;;;;4877542;29;20712;-44
2022/06/16 10:33:28;;;;;;;5.70;3.97;;;25.50;51.90;;;;;;4879171;29;20037;-45
2022/06/16 10:35:56;;;;;;;6.88;4.15;;;25.50;51.80;;;;;;4870328;29;20037;-45
2022/06/16 10:38:33;;;;;;;5.70;3.85;;;25.50;51.60;;;;;;4870082;29;20097;-45
2022/06/16 10:41:03;;;;;;;5.97;3.90;;;25.50;51.50;;;;;;4870018;29;20072;-45
2022/06/16 10:43:35;;;;;;;5.72;3.78;;;25.50;52.10;;;;;;4869561;29;20089;-45
2022/06/16 10:46:22;;;;;;;5.37;3.60;;;25.50;51.40;;;;;;4870700;29;20025;-43
2022/06/16 10:48:52;;;;;;;5.05;3.60;;;25.60;51.30;;;;;;4888792;29;20115;-44
2022/06/16 10:51:27;;;;;;;5.05;3.42;;;25.60;51.20;;;;;;4889145;29;20036;-45
2022/06/16 10:54:25;;;;;;;6.20;3.88;;;25.50;51.20;;;;;;4889605;29;20497;-43
2022/06/16 10:57:14;;;;;;;4.65;3.33;;;25.50;51.10;;;;;;4888521;29;20047;-43
2022/06/16 10:59:46;;;;;;;4.85;3.60;;;25.60;51.00;;;;;;4888759;29;20059;-43
2022/06/16 11:02:22;;;;;;;3.95;3.00;;;25.50;51.00;;;;;;4888009;29;20036;-44
2022/06/16 11:04:55;;;;;;;4.70;3.05;;;25.50;50.90;;;;;;4892221;29;20028;-44
2022/06/16 11:07:22;;;;;;;4.40;3.05;;;25.50;51.60;;;;;;4892657;29;20675;-45
2022/06/16 11:09:48;;;;;;;4.47;3.40;;;25.60;50.80;;;;;;4892542;29;20412;-45
2022/06/16 11:12:23;;;;;;;5.70;3.20;;;25.50;50.80;;;;;;4892405;29;20060;-44
2022/06/16 11:14:56;;;;;;;4.13;3.03;;;25.50;50.90;;;;;;4892739;29;20033;-45
2022/06/16 11:17:29;;;;;;;4.13;3.10;;;25.50;50.90;;;;;;4892275;29;20087;-44
2022/06/16 11:20:02;;;;;;;4.22;2.72;;;25.60;50.70;;;;;;4892474;29;20044;-44
2022/06/16 11:22:35;;;;;;;4.10;2.80;;;25.60;50.80;;;;;;4892713;29;20043;-43
2022/06/16 11:25:11;;;;;;;5.20;3.10;;;25.60;50.80;;;;;;4891657;29;20100;-45
2022/06/16 11:27:44;;;;;;;4.25;3.13;;;25.60;50.70;;;;;;4892307;29;20072;-45
2022/06/16 11:30:32;;;;;;;4.30;2.88;;;25.60;50.70;;;;;;4892076;29;20400;-44
2022/06/16 11:32:58;;;;;;;4.88;2.70;;;25.60;50.60;;;;;;4892178;29;20176;-44
2022/06/16 11:35:44;;;;;;;4.00;2.80;;;25.60;50.60;;;;;;4892231;29;20152;-44
2022/06/16 11:38:39;;;;;;;4.20;2.88;;;25.60;50.70;;;;;;4892163;29;20111;-45
2022/06/16 11:41:09;;;;;;;3.78;2.83;;;25.60;50.70;;;;;;4892100;29;20571;-44
2022/06/16 11:43:46;;;;;;;4.45;2.88;;;25.60;50.70;;;;;;4892039;29;20116;-43
2022/06/16 11:46:20;;;;;;;4.50;3.20;;;25.60;50.70;;;;;;4891764;29;20028;-45
2022/06/16 11:49:09;;;;;;;4.32;3.03;;;25.60;50.60;;;;;;4891710;29;20433;-44
2022/06/16 11:52:14;;;;;;;3.90;2.70;;;25.60;50.60;;;;;;4891931;29;20401;-46
2022/06/16 11:55:14;;;;;;;4.60;2.80;;;25.70;50.60;;;;;;4892029;29;20028;-44
2022/06/16 11:58:12;;;;;;;4.40;2.70;;;25.60;50.60;;;;;;4891554;29;20166;-45
2022/06/16 12:00:47;;;;;;;4.35;2.50;;;25.70;50.60;;;;;;4891507;29;20047;-44
2022/06/16 12:03:37;;;;;;;3.67;2.60;;;25.70;50.50;;;;;;4891658;29;20079;-45
2022/06/16 12:06:47;;;;;;;3.85;2.58;;;25.70;50.60;;;;;;4891288;29;20606;-45
2022/06/16 12:09:28;;;;;;;4.53;3.03;;;25.70;50.50;;;;;;4891713;29;20025;-44
2022/06/16 12:12:10;;;;;;;4.25;2.42;;;25.70;50.50;;;;;;4891719;29;20039;-44
2022/06/16 12:14:51;;;;;;;4.43;2.70;;;25.70;50.40;;;;;;4891461;29;20115;-43
2022/06/16 12:17:23;;;;;;;4.10;2.65;;;25.80;50.40;;;;;;4891194;29;20036;-44
2022/06/16 12:19:58;;;;;;;3.72;2.25;;;25.80;50.40;;;;;;4890096;29;20120;-45
2022/06/16 12:22:46;;;;;;;3.85;2.58;;;25.80;50.40;;;;;;4891696;29;20075;-44
2022/06/16 12:25:24;;;;;;;4.00;2.67;;;25.80;50.30;;;;;;4891270;29;20667;-45
2022/06/16 12:28:10;;;;;;;3.70;2.53;;;25.80;50.30;;;;;;4890497;29;20040;-44
2022/06/16 12:30:46;;;;;;;3.67;2.47;;;25.80;50.20;;;;;;4891411;29;20043;-44
2022/06/16 12:33:16;;;;;;;3.75;2.35;;;25.90;50.10;;;;;;4890690;29;20040;-43
2022/06/16 12:36:04;;;;;;;3.20;2.40;;;25.90;50.10;;;;;;4890871;29;20031;-43
2022/06/16 12:38:38;;;;;;;3.63;2.60;;;25.90;50.10;;;;;;4890910;29;20107;-44
2022/06/16 12:41:20;;;;;;;3.47;2.08;;;25.90;50.10;;;;;;4891137;29;20043;-44
2022/06/16 12:44:26;;;;;;;3.70;2.28;;;25.90;50.00;;;;;;4890754;29;20087;-44
2022/06/16 12:47:05;;;;;;;3.95;2.35;;;25.90;50.00;;;;;;4868859;29;20037;-44
2022/06/16 12:49:40;;;;;;;4.75;2.53;;;25.90;49.90;;;;;;4888195;29;20105;-44
2022/06/16 12:52:18;;;;;;;4.20;2.55;;;25.90;49.80;;;;;;4890442;29;20729;-43
2022/06/16 12:54:51;;;;;;;4.13;2.63;;;26.00;50.30;;;;;;4890700;29;20036;-50
2022/06/16 12:57:20;;;;;;;3.63;2.50;;;26.00;50.30;;;;;;4890185;29;20116;-44
2022/06/16 12:59:58;;;;;;;3.95;2.53;;;26.00;50.20;;;;;;4890797;29;20029;-45
2022/06/16 13:02:36;;;;;;;4.05;2.90;;;26.00;50.20;;;;;;4889629;29;20036;-45
2022/06/16 13:05:13;;;;;;;4.38;2.88;;;26.00;50.20;;;;;;4890455;29;20040;-44
2022/06/16 13:07:47;;;;;;;3.05;2.20;;;26.00;50.20;;;;;;4881963;29;20021;-43
2022/06/16 13:10:14;;;;;;;4.43;2.70;;;26.00;50.10;;;;;;4879821;29;20083;-45
2022/06/16 13:12:44;;;;;;;4.60;2.55;;;26.00;50.10;;;;;;4885207;29;20048;-45
2022/06/16 13:15:31;;;;;;;3.83;2.30;;;26.00;50.10;;;;;;4881272;29;20875;-43
2022/06/16 13:18:18;;;;;;;4.20;2.17;;;26.10;50.10;;;;;;4887689;29;20047;-44
2022/06/16 13:20:46;;;;;;;5.40;2.92;;;26.00;50.80;;;;;;4888982;29;20544;-43
2022/06/16 13:23:18;;;;;;;3.10;2.28;;;26.00;50.10;;;;;;4889949;29;20127;-44
2022/06/16 13:25:44;;;;;;;3.88;2.17;;;26.10;50.10;;;;;;4888879;29;20029;-44
2022/06/16 13:28:39;;;;;;;3.25;2.30;;;26.10;50.10;;;;;;4889971;29;20064;-45
2022/06/16 13:31:18;;;;;;;3.22;2.30;;;26.00;50.10;;;;;;4873117;29;20620;-45
2022/06/16 13:34:09;;;;;;;4.22;2.75;;;26.10;50.00;;;;;;4874972;29;20044;-45
2022/06/16 13:36:34;;;;;;;4.28;2.20;;;26.10;50.00;;;;;;4889149;29;20040;-45
2022/06/16 13:39:06;;;;;;;2.88;2.03;;;26.10;50.00;;;;;;4889702;29;20033;-43
2022/06/16 13:41:38;;;;;;;3.80;2.10;;;26.10;50.00;;;;;;4889492;29;20493;-44